sensor_id;sensor_type;location;lat;lon;timestamp;temperature;humidity
2226;DHT22;1119;48.288;8.726;2023-10-08T00:00:43;15.30;54.00
2226;DHT22;1119;48.288;8.726;2023-10-08T00:03:13;15.30;54.00
2226;DHT22;1119;48.288;8.726;2023-10-08T00:05:41;15.30;54.00
2226;DHT22;1119;48.288;8.726;2023-10-08T00:08:09;15.30;54.00
2226;DHT22;1119;48.288;8.726;2023-10-08T00:10:37;15.30;53.90
2226;DHT22;1119;48.288;8.726;2023-10-08T00:13:08;15.40;54.00
2226;DHT22;1119;48.288;8.726;2023-10-08T00:15:36;15.40;54.00
2226;DHT22;1119;48.288;8.726;2023-10-08T00:18:04;15.40;54.00
2226;DHT22;1119;48.288;8.726;2023-10-08T00:20:32;15.40;54.10
2226;DHT22;1119;48.288;8.726;2023-10-08T00:23:26;15.40;54.20
2226;DHT22;1119;48.288;8.726;2023-10-08T00:25:56;15.40;54.20
2226;DHT22;1119;48.288;8.726;2023-10-08T00:28:31;15.30;54.40
2226;DHT22;1119;48.288;8.726;2023-10-08T00:30:58;15.20;54.50
2226;DHT22;1119;48.288;8.726;2023-10-08T00:33:37;15.20;54.70
2226;DHT22;1119;48.288;8.726;2023-10-08T00:36:05;15.10;54.90
2226;DHT22;1119;48.288;8.726;2023-10-08T00:38:43;15.00;55.20
2226;DHT22;1119;48.288;8.726;2023-10-08T00:41:12;15.10;55.60
2226;DHT22;1119;48.288;8.726;2023-10-08T00:43:43;14.90;55.00
2226;DHT22;1119;48.288;8.726;2023-10-08T00:46:16;14.90;55.20
2226;DHT22;1119;48.288;8.726;2023-10-08T00:48:49;15.00;55.00
2226;DHT22;1119;48.288;8.726;2023-10-08T00:51:19;15.00;54.60
2226;DHT22;1119;48.288;8.726;2023-10-08T00:53:55;15.10;54.80
2226;DHT22;1119;48.288;8.726;2023-10-08T00:56:32;15.10;54.80
2226;DHT22;1119;48.288;8.726;2023-10-08T00:59:17;15.20;54.60
2226;DHT22;1119;48.288;8.726;2023-10-08T01:01:48;15.20;54.50
2226;DHT22;1119;48.288;8.726;2023-10-08T01:04:18;15.20;54.40
2226;DHT22;1119;48.288;8.726;2023-10-08T01:06:50;15.30;54.30
2226;DHT22;1119;48.288;8.726;2023-10-08T01:09:21;15.30;54.60
2226;DHT22;1119;48.288;8.726;2023-10-08T01:12:07;15.30;54.00
2226;DHT22;1119;48.288;8.726;2023-10-08T01:14:40;15.30;54.00
2226;DHT22;1119;48.288;8.726;2023-10-08T01:17:09;15.40;53.80
2226;DHT22;1119;48.288;8.726;2023-10-08T01:19:39;15.40;53.70
2226;DHT22;1119;48.288;8.726;2023-10-08T01:22:11;15.40;53.60
2226;DHT22;1119;48.288;8.726;2023-10-08T01:24:44;15.40;53.60
2226;DHT22;1119;48.288;8.726;2023-10-08T01:27:14;15.40;53.50
2226;DHT22;1119;48.288;8.726;2023-10-08T01:29:47;15.50;53.40
2226;DHT22;1119;48.288;8.726;2023-10-08T01:32:16;15.50;53.40
2226;DHT22;1119;48.288;8.726;2023-10-08T01:34:45;15.50;53.50
2226;DHT22;1119;48.288;8.726;2023-10-08T01:37:14;15.50;53.40
2226;DHT22;1119;48.288;8.726;2023-10-08T01:39:43;15.50;54.00
2226;DHT22;1119;48.288;8.726;2023-10-08T01:42:11;15.50;54.10
2226;DHT22;1119;48.288;8.726;2023-10-08T01:44:44;15.50;53.50
2226;DHT22;1119;48.288;8.726;2023-10-08T01:47:15;15.40;53.40
2226;DHT22;1119;48.288;8.726;2023-10-08T01:49:42;15.40;53.70
2226;DHT22;1119;48.288;8.726;2023-10-08T01:52:11;15.50;54.00
2226;DHT22;1119;48.288;8.726;2023-10-08T01:54:46;15.40;54.00
2226;DHT22;1119;48.288;8.726;2023-10-08T01:57:13;15.30;54.20
2226;DHT22;1119;48.288;8.726;2023-10-08T01:59:41;15.30;54.30
2226;DHT22;1119;48.288;8.726;2023-10-08T02:02:10;15.20;54.50
2226;DHT22;1119;48.288;8.726;2023-10-08T02:04:39;15.20;54.80
2226;DHT22;1119;48.288;8.726;2023-10-08T02:07:07;15.10;55.00
2226;DHT22;1119;48.288;8.726;2023-10-08T02:09:38;15.00;55.10
2226;DHT22;1119;48.288;8.726;2023-10-08T02:12:07;14.90;55.40
2226;DHT22;1119;48.288;8.726;2023-10-08T02:14:34;14.90;55.50
2226;DHT22;1119;48.288;8.726;2023-10-08T02:17:05;14.90;55.60
2226;DHT22;1119;48.288;8.726;2023-10-08T02:19:35;14.80;55.60
2226;DHT22;1119;48.288;8.726;2023-10-08T02:22:03;14.80;55.70
2226;DHT22;1119;48.288;8.726;2023-10-08T02:24:35;14.80;55.80
2226;DHT22;1119;48.288;8.726;2023-10-08T02:27:10;14.80;55.80
2226;DHT22;1119;48.288;8.726;2023-10-08T02:29:41;14.80;56.60
2226;DHT22;1119;48.288;8.726;2023-10-08T02:32:08;14.70;56.20
2226;DHT22;1119;48.288;8.726;2023-10-08T02:34:36;14.70;56.20
2226;DHT22;1119;48.288;8.726;2023-10-08T02:37:07;14.70;56.40
2226;DHT22;1119;48.288;8.726;2023-10-08T02:39:36;14.70;56.60
2226;DHT22;1119;48.288;8.726;2023-10-08T02:42:06;14.70;56.90
2226;DHT22;1119;48.288;8.726;2023-10-08T02:44:37;14.60;57.20
2226;DHT22;1119;48.288;8.726;2023-10-08T02:47:08;14.50;57.40
2226;DHT22;1119;48.288;8.726;2023-10-08T02:49:37;14.40;57.80
2226;DHT22;1119;48.288;8.726;2023-10-08T02:52:07;14.30;58.70
2226;DHT22;1119;48.288;8.726;2023-10-08T02:54:35;14.20;58.50
2226;DHT22;1119;48.288;8.726;2023-10-08T02:57:06;14.20;59.00
2226;DHT22;1119;48.288;8.726;2023-10-08T02:59:41;14.20;58.40
2226;DHT22;1119;48.288;8.726;2023-10-08T03:02:13;14.20;58.40
2226;DHT22;1119;48.288;8.726;2023-10-08T03:04:46;14.20;58.40
2226;DHT22;1119;48.288;8.726;2023-10-08T03:07:14;14.20;58.50
2226;DHT22;1119;48.288;8.726;2023-10-08T03:09:50;14.20;58.50
2226;DHT22;1119;48.288;8.726;2023-10-08T03:12:29;14.20;58.50
2226;DHT22;1119;48.288;8.726;2023-10-08T03:14:59;14.20;58.20
2226;DHT22;1119;48.288;8.726;2023-10-08T03:17:40;14.30;58.10
2226;DHT22;1119;48.288;8.726;2023-10-08T03:20:14;14.30;57.80
2226;DHT22;1119;48.288;8.726;2023-10-08T03:22:55;14.30;57.80
2226;DHT22;1119;48.288;8.726;2023-10-08T03:25:23;14.40;58.00
2226;DHT22;1119;48.288;8.726;2023-10-08T03:27:52;14.30;57.90
2226;DHT22;1119;48.288;8.726;2023-10-08T03:30:21;14.30;58.10
2226;DHT22;1119;48.288;8.726;2023-10-08T03:32:52;14.20;58.30
2226;DHT22;1119;48.288;8.726;2023-10-08T03:35:25;14.20;58.70
2226;DHT22;1119;48.288;8.726;2023-10-08T03:38:02;14.20;58.80
2226;DHT22;1119;48.288;8.726;2023-10-08T03:40:57;14.10;59.00
2226;DHT22;1119;48.288;8.726;2023-10-08T03:43:32;14.00;59.10
2226;DHT22;1119;48.288;8.726;2023-10-08T03:46:12;14.00;59.20
2226;DHT22;1119;48.288;8.726;2023-10-08T03:48:42;14.00;59.30
2226;DHT22;1119;48.288;8.726;2023-10-08T03:51:11;14.00;59.30
2226;DHT22;1119;48.288;8.726;2023-10-08T03:53:40;14.00;59.40
2226;DHT22;1119;48.288;8.726;2023-10-08T03:56:25;14.10;59.30
2226;DHT22;1119;48.288;8.726;2023-10-08T03:58:55;14.20;59.50
2226;DHT22;1119;48.288;8.726;2023-10-08T04:01:26;14.10;59.60
2226;DHT22;1119;48.288;8.726;2023-10-08T04:03:57;14.10;59.80
2226;DHT22;1119;48.288;8.726;2023-10-08T04:06:28;14.00;60.00
2226;DHT22;1119;48.288;8.726;2023-10-08T04:08:56;14.00;60.10
2226;DHT22;1119;48.288;8.726;2023-10-08T04:11:39;14.00;59.90
2226;DHT22;1119;48.288;8.726;2023-10-08T04:14:18;14.00;59.70
2226;DHT22;1119;48.288;8.726;2023-10-08T04:16:46;14.10;59.80
2226;DHT22;1119;48.288;8.726;2023-10-08T04:19:18;14.10;59.90
2226;DHT22;1119;48.288;8.726;2023-10-08T04:21:46;14.10;60.20
2226;DHT22;1119;48.288;8.726;2023-10-08T04:24:21;14.00;60.40
2226;DHT22;1119;48.288;8.726;2023-10-08T04:26:56;14.00;60.70
2226;DHT22;1119;48.288;8.726;2023-10-08T04:29:24;14.00;61.10
2226;DHT22;1119;48.288;8.726;2023-10-08T04:31:52;13.90;61.30
2226;DHT22;1119;48.288;8.726;2023-10-08T04:34:33;13.90;61.50
2226;DHT22;1119;48.288;8.726;2023-10-08T04:37:01;13.90;61.50
2226;DHT22;1119;48.288;8.726;2023-10-08T04:39:33;13.90;61.50
2226;DHT22;1119;48.288;8.726;2023-10-08T04:42:02;13.90;61.40
2226;DHT22;1119;48.288;8.726;2023-10-08T04:44:36;13.90;61.30
2226;DHT22;1119;48.288;8.726;2023-10-08T04:47:06;13.90;61.20
2226;DHT22;1119;48.288;8.726;2023-10-08T04:49:55;14.00;61.20
2226;DHT22;1119;48.288;8.726;2023-10-08T04:52:22;14.00;61.40
2226;DHT22;1119;48.288;8.726;2023-10-08T04:54:51;14.00;61.30
2226;DHT22;1119;48.288;8.726;2023-10-08T04:57:21;14.00;61.50
2226;DHT22;1119;48.288;8.726;2023-10-08T04:59:51;14.00;61.60
2226;DHT22;1119;48.288;8.726;2023-10-08T05:02:23;13.90;61.70
2226;DHT22;1119;48.288;8.726;2023-10-08T05:05:00;13.90;62.70
2226;DHT22;1119;48.288;8.726;2023-10-08T05:07:48;13.80;62.10
2226;DHT22;1119;48.288;8.726;2023-10-08T05:10:43;13.80;62.40
2226;DHT22;1119;48.288;8.726;2023-10-08T05:13:42;13.70;62.50
2226;DHT22;1119;48.288;8.726;2023-10-08T05:16:27;13.70;62.60
2226;DHT22;1119;48.288;8.726;2023-10-08T05:19:03;13.60;62.60
2226;DHT22;1119;48.288;8.726;2023-10-08T05:21:48;13.60;62.60
2226;DHT22;1119;48.288;8.726;2023-10-08T05:24:28;13.60;62.60
2226;DHT22;1119;48.288;8.726;2023-10-08T05:27:06;13.70;62.60
2226;DHT22;1119;48.288;8.726;2023-10-08T05:29:49;13.70;62.70
2226;DHT22;1119;48.288;8.726;2023-10-08T05:32:37;13.70;62.70
2226;DHT22;1119;48.288;8.726;2023-10-08T05:35:10;13.60;62.50
2226;DHT22;1119;48.288;8.726;2023-10-08T05:37:54;13.70;62.70
2226;DHT22;1119;48.288;8.726;2023-10-08T05:40:39;13.70;62.50
2226;DHT22;1119;48.288;8.726;2023-10-08T05:43:26;13.70;62.60
2226;DHT22;1119;48.288;8.726;2023-10-08T05:46:16;13.70;62.40
2226;DHT22;1119;48.288;8.726;2023-10-08T05:49:00;13.80;62.60
2226;DHT22;1119;48.288;8.726;2023-10-08T05:51:30;13.70;62.60
2226;DHT22;1119;48.288;8.726;2023-10-08T05:54:12;13.80;62.80
2226;DHT22;1119;48.288;8.726;2023-10-08T05:57:02;13.80;63.00
2226;DHT22;1119;48.288;8.726;2023-10-08T05:59:33;13.70;63.10
2226;DHT22;1119;48.288;8.726;2023-10-08T06:02:20;13.70;63.20
2226;DHT22;1119;48.288;8.726;2023-10-08T06:04:54;13.70;63.30
2226;DHT22;1119;48.288;8.726;2023-10-08T06:07:47;13.70;63.60
2226;DHT22;1119;48.288;8.726;2023-10-08T06:10:23;13.80;63.70
2226;DHT22;1119;48.288;8.726;2023-10-08T06:13:07;13.80;64.50
2226;DHT22;1119;48.288;8.726;2023-10-08T06:15:41;13.80;63.80
2226;DHT22;1119;48.288;8.726;2023-10-08T06:18:15;13.90;63.80
2226;DHT22;1119;48.288;8.726;2023-10-08T06:20:45;14.00;64.00
2226;DHT22;1119;48.288;8.726;2023-10-08T06:23:13;14.00;63.90
2226;DHT22;1119;48.288;8.726;2023-10-08T06:25:44;14.10;64.00
2226;DHT22;1119;48.288;8.726;2023-10-08T06:28:13;14.10;64.20
2226;DHT22;1119;48.288;8.726;2023-10-08T06:30:42;14.20;64.40
2226;DHT22;1119;48.288;8.726;2023-10-08T06:33:10;14.30;64.50
2226;DHT22;1119;48.288;8.726;2023-10-08T06:35:39;14.50;64.70
2226;DHT22;1119;48.288;8.726;2023-10-08T06:38:10;14.70;64.80
2226;DHT22;1119;48.288;8.726;2023-10-08T06:40:42;15.00;64.70
2226;DHT22;1119;48.288;8.726;2023-10-08T06:43:10;15.10;64.30
2226;DHT22;1119;48.288;8.726;2023-10-08T06:45:48;15.30;64.00
2226;DHT22;1119;48.288;8.726;2023-10-08T06:48:19;15.50;64.00
2226;DHT22;1119;48.288;8.726;2023-10-08T06:50:49;15.60;63.80
2226;DHT22;1119;48.288;8.726;2023-10-08T06:53:17;15.80;63.70
2226;DHT22;1119;48.288;8.726;2023-10-08T06:55:45;15.90;63.60
2226;DHT22;1119;48.288;8.726;2023-10-08T06:58:14;16.00;63.40
2226;DHT22;1119;48.288;8.726;2023-10-08T07:00:43;16.20;62.50
2226;DHT22;1119;48.288;8.726;2023-10-08T07:03:16;16.50;62.20
2226;DHT22;1119;48.288;8.726;2023-10-08T07:05:45;17.00;62.10
2226;DHT22;1119;48.288;8.726;2023-10-08T07:08:26;17.60;62.30
2226;DHT22;1119;48.288;8.726;2023-10-08T07:10:58;18.00;60.60
2226;DHT22;1119;48.288;8.726;2023-10-08T07:13:27;18.30;60.00
2226;DHT22;1119;48.288;8.726;2023-10-08T07:15:56;18.70;59.20
2226;DHT22;1119;48.288;8.726;2023-10-08T07:18:23;18.90;58.60
2226;DHT22;1119;48.288;8.726;2023-10-08T07:20:52;18.90;58.10
2226;DHT22;1119;48.288;8.726;2023-10-08T07:23:21;18.80;57.50
2226;DHT22;1119;48.288;8.726;2023-10-08T07:25:54;18.70;57.50
2226;DHT22;1119;48.288;8.726;2023-10-08T07:28:26;19.70;56.80
2226;DHT22;1119;48.288;8.726;2023-10-08T07:30:55;21.30;54.80
2226;DHT22;1119;48.288;8.726;2023-10-08T07:33:23;22.80;52.50
2226;DHT22;1119;48.288;8.726;2023-10-08T07:36:02;24.00;49.70
2226;DHT22;1119;48.288;8.726;2023-10-08T07:38:40;24.20;48.30
2226;DHT22;1119;48.288;8.726;2023-10-08T07:41:09;23.50;47.90
2226;DHT22;1119;48.288;8.726;2023-10-08T07:43:38;23.00;48.50
2226;DHT22;1119;48.288;8.726;2023-10-08T07:46:06;22.50;48.90
2226;DHT22;1119;48.288;8.726;2023-10-08T07:48:33;22.00;49.60
2226;DHT22;1119;48.288;8.726;2023-10-08T07:51:00;21.70;50.50
2226;DHT22;1119;48.288;8.726;2023-10-08T07:53:28;21.40;51.40
2226;DHT22;1119;48.288;8.726;2023-10-08T07:56:04;21.10;52.30
2226;DHT22;1119;48.288;8.726;2023-10-08T07:58:36;20.90;53.30
2226;DHT22;1119;48.288;8.726;2023-10-08T08:01:07;20.70;53.60
2226;DHT22;1119;48.288;8.726;2023-10-08T08:03:36;20.60;53.10
2226;DHT22;1119;48.288;8.726;2023-10-08T08:06:07;20.50;53.80
2226;DHT22;1119;48.288;8.726;2023-10-08T08:08:36;20.40;53.90
2226;DHT22;1119;48.288;8.726;2023-10-08T08:11:06;20.40;54.10
2226;DHT22;1119;48.288;8.726;2023-10-08T08:13:39;20.30;54.10
2226;DHT22;1119;48.288;8.726;2023-10-08T08:16:10;20.30;54.60
2226;DHT22;1119;48.288;8.726;2023-10-08T08:18:43;20.20;55.00
2226;DHT22;1119;48.288;8.726;2023-10-08T08:21:11;20.20;55.40
2226;DHT22;1119;48.288;8.726;2023-10-08T08:23:42;20.20;55.40
2226;DHT22;1119;48.288;8.726;2023-10-08T08:26:14;20.30;55.90
2226;DHT22;1119;48.288;8.726;2023-10-08T08:28:54;20.30;55.50
2226;DHT22;1119;48.288;8.726;2023-10-08T08:31:23;20.50;55.50
2226;DHT22;1119;48.288;8.726;2023-10-08T08:33:51;20.50;54.70
2226;DHT22;1119;48.288;8.726;2023-10-08T08:36:26;20.70;54.80
2226;DHT22;1119;48.288;8.726;2023-10-08T08:38:55;21.10;55.30
2226;DHT22;1119;48.288;8.726;2023-10-08T08:41:22;22.10;53.50
2226;DHT22;1119;48.288;8.726;2023-10-08T08:43:51;22.90;52.00
2226;DHT22;1119;48.288;8.726;2023-10-08T08:46:33;23.80;50.40
2226;DHT22;1119;48.288;8.726;2023-10-08T08:49:04;24.70;48.40
2226;DHT22;1119;48.288;8.726;2023-10-08T08:51:34;25.10;47.00
2226;DHT22;1119;48.288;8.726;2023-10-08T08:54:02;25.20;46.90
2226;DHT22;1119;48.288;8.726;2023-10-08T08:56:33;25.00;46.00
2226;DHT22;1119;48.288;8.726;2023-10-08T08:59:03;24.70;46.40
2226;DHT22;1119;48.288;8.726;2023-10-08T09:01:33;24.50;46.20
2226;DHT22;1119;48.288;8.726;2023-10-08T09:04:02;24.50;46.40
2226;DHT22;1119;48.288;8.726;2023-10-08T09:06:32;24.40;46.60
2226;DHT22;1119;48.288;8.726;2023-10-08T09:09:00;24.20;47.80
2226;DHT22;1119;48.288;8.726;2023-10-08T09:11:47;24.00;47.80
2226;DHT22;1119;48.288;8.726;2023-10-08T09:14:19;23.90;48.30
2226;DHT22;1119;48.288;8.726;2023-10-08T09:16:50;23.90;48.80
2226;DHT22;1119;48.288;8.726;2023-10-08T09:19:18;23.80;49.70
2226;DHT22;1119;48.288;8.726;2023-10-08T09:21:59;23.90;49.30
2226;DHT22;1119;48.288;8.726;2023-10-08T09:24:30;24.00;48.40
2226;DHT22;1119;48.288;8.726;2023-10-08T09:26:59;23.90;47.80
2226;DHT22;1119;48.288;8.726;2023-10-08T09:29:28;23.90;48.40
2226;DHT22;1119;48.288;8.726;2023-10-08T09:31:58;23.80;47.80
2226;DHT22;1119;48.288;8.726;2023-10-08T09:34:26;23.60;47.60
2226;DHT22;1119;48.288;8.726;2023-10-08T09:36:57;23.50;47.40
2226;DHT22;1119;48.288;8.726;2023-10-08T09:39:27;23.40;48.40
2226;DHT22;1119;48.288;8.726;2023-10-08T09:42:01;23.40;48.80
2226;DHT22;1119;48.288;8.726;2023-10-08T09:44:30;23.40;49.40
2226;DHT22;1119;48.288;8.726;2023-10-08T09:47:04;23.40;48.70
2226;DHT22;1119;48.288;8.726;2023-10-08T09:49:39;23.30;48.10
2226;DHT22;1119;48.288;8.726;2023-10-08T09:52:09;23.30;46.70
2226;DHT22;1119;48.288;8.726;2023-10-08T09:54:44;23.20;47.40
2226;DHT22;1119;48.288;8.726;2023-10-08T09:57:17;23.20;47.10
2226;DHT22;1119;48.288;8.726;2023-10-08T09:59:46;23.20;47.30
2226;DHT22;1119;48.288;8.726;2023-10-08T10:02:17;23.20;47.90
2226;DHT22;1119;48.288;8.726;2023-10-08T10:04:50;23.30;48.40
2226;DHT22;1119;48.288;8.726;2023-10-08T10:07:19;23.40;47.50
2226;DHT22;1119;48.288;8.726;2023-10-08T10:09:50;23.40;46.30
2226;DHT22;1119;48.288;8.726;2023-10-08T10:12:24;23.50;46.20
2226;DHT22;1119;48.288;8.726;2023-10-08T10:14:53;23.60;45.30
2226;DHT22;1119;48.288;8.726;2023-10-08T10:17:25;23.60;45.80
2226;DHT22;1119;48.288;8.726;2023-10-08T10:19:54;23.60;45.40
2226;DHT22;1119;48.288;8.726;2023-10-08T10:22:28;23.70;45.00
2226;DHT22;1119;48.288;8.726;2023-10-08T10:24:57;23.80;45.00
2226;DHT22;1119;48.288;8.726;2023-10-08T10:27:26;23.90;45.10
2226;DHT22;1119;48.288;8.726;2023-10-08T10:30:01;24.00;45.30
2226;DHT22;1119;48.288;8.726;2023-10-08T10:32:37;24.10;44.90
2226;DHT22;1119;48.288;8.726;2023-10-08T10:35:06;24.30;44.80
2226;DHT22;1119;48.288;8.726;2023-10-08T10:37:39;24.40;43.90
2226;DHT22;1119;48.288;8.726;2023-10-08T10:40:20;24.50;44.20
2226;DHT22;1119;48.288;8.726;2023-10-08T10:42:56;24.50;44.10
2226;DHT22;1119;48.288;8.726;2023-10-08T10:45:25;24.70;43.20
2226;DHT22;1119;48.288;8.726;2023-10-08T10:48:07;24.70;42.30
2226;DHT22;1119;48.288;8.726;2023-10-08T10:50:39;24.70;42.60
2226;DHT22;1119;48.288;8.726;2023-10-08T10:53:27;24.70;42.20
2226;DHT22;1119;48.288;8.726;2023-10-08T10:55:56;24.70;42.20
2226;DHT22;1119;48.288;8.726;2023-10-08T10:58:31;24.60;42.20
2226;DHT22;1119;48.288;8.726;2023-10-08T11:01:05;24.70;42.40
2226;DHT22;1119;48.288;8.726;2023-10-08T11:03:51;24.70;42.30
2226;DHT22;1119;48.288;8.726;2023-10-08T11:06:20;24.90;42.40
2226;DHT22;1119;48.288;8.726;2023-10-08T11:08:50;25.10;42.10
2226;DHT22;1119;48.288;8.726;2023-10-08T11:11:18;25.20;41.60
2226;DHT22;1119;48.288;8.726;2023-10-08T11:13:46;25.30;42.30
2226;DHT22;1119;48.288;8.726;2023-10-08T11:16:23;25.40;41.40
2226;DHT22;1119;48.288;8.726;2023-10-08T11:18:53;25.50;41.70
2226;DHT22;1119;48.288;8.726;2023-10-08T11:21:24;25.50;41.70
2226;DHT22;1119;48.288;8.726;2023-10-08T11:23:52;25.40;41.20
2226;DHT22;1119;48.288;8.726;2023-10-08T11:26:23;25.40;41.70
2226;DHT22;1119;48.288;8.726;2023-10-08T11:28:59;25.50;41.60
2226;DHT22;1119;48.288;8.726;2023-10-08T11:31:29;25.60;41.40
2226;DHT22;1119;48.288;8.726;2023-10-08T11:34:03;25.70;41.70
2226;DHT22;1119;48.288;8.726;2023-10-08T11:36:35;25.80;42.00
2226;DHT22;1119;48.288;8.726;2023-10-08T11:39:15;25.80;41.20
2226;DHT22;1119;48.288;8.726;2023-10-08T11:41:58;25.90;41.60
2226;DHT22;1119;48.288;8.726;2023-10-08T11:44:30;26.00;41.30
2226;DHT22;1119;48.288;8.726;2023-10-08T11:47:01;26.20;41.80
2226;DHT22;1119;48.288;8.726;2023-10-08T11:49:39;26.30;41.70
2226;DHT22;1119;48.288;8.726;2023-10-08T11:52:13;26.40;40.80
2226;DHT22;1119;48.288;8.726;2023-10-08T11:54:41;26.40;40.00
2226;DHT22;1119;48.288;8.726;2023-10-08T11:57:09;26.40;40.90
2226;DHT22;1119;48.288;8.726;2023-10-08T11:59:37;26.50;40.10
2226;DHT22;1119;48.288;8.726;2023-10-08T12:02:06;26.60;39.70
2226;DHT22;1119;48.288;8.726;2023-10-08T12:04:33;26.70;39.90
2226;DHT22;1119;48.288;8.726;2023-10-08T12:07:03;26.70;40.10
2226;DHT22;1119;48.288;8.726;2023-10-08T12:09:36;26.80;39.50
2226;DHT22;1119;48.288;8.726;2023-10-08T12:12:07;26.90;40.30
2226;DHT22;1119;48.288;8.726;2023-10-08T12:14:35;27.00;40.20
2226;DHT22;1119;48.288;8.726;2023-10-08T12:17:03;27.10;40.50
2226;DHT22;1119;48.288;8.726;2023-10-08T12:19:37;27.20;39.30
2226;DHT22;1119;48.288;8.726;2023-10-08T12:22:07;27.20;40.30
2226;DHT22;1119;48.288;8.726;2023-10-08T12:24:35;27.20;38.90
2226;DHT22;1119;48.288;8.726;2023-10-08T12:27:04;27.10;39.40
2226;DHT22;1119;48.288;8.726;2023-10-08T12:29:36;27.10;39.40
2226;DHT22;1119;48.288;8.726;2023-10-08T12:32:04;27.10;39.80
2226;DHT22;1119;48.288;8.726;2023-10-08T12:34:42;27.10;40.70
2226;DHT22;1119;48.288;8.726;2023-10-08T12:37:11;27.00;38.90
2226;DHT22;1119;48.288;8.726;2023-10-08T12:39:40;26.80;39.50
2226;DHT22;1119;48.288;8.726;2023-10-08T12:42:26;26.70;39.90
2226;DHT22;1119;48.288;8.726;2023-10-08T12:44:53;26.70;40.60
2226;DHT22;1119;48.288;8.726;2023-10-08T12:47:23;26.60;40.70
2226;DHT22;1119;48.288;8.726;2023-10-08T12:49:54;26.60;40.40
2226;DHT22;1119;48.288;8.726;2023-10-08T12:52:24;26.50;40.00
2226;DHT22;1119;48.288;8.726;2023-10-08T12:54:54;26.30;40.50
2226;DHT22;1119;48.288;8.726;2023-10-08T12:57:24;26.20;40.80
2226;DHT22;1119;48.288;8.726;2023-10-08T12:59:57;26.30;41.10
2226;DHT22;1119;48.288;8.726;2023-10-08T13:02:25;26.20;41.20
2226;DHT22;1119;48.288;8.726;2023-10-08T13:04:54;26.20;41.50
2226;DHT22;1119;48.288;8.726;2023-10-08T13:07:24;26.30;41.30
2226;DHT22;1119;48.288;8.726;2023-10-08T13:09:54;26.10;40.40
2226;DHT22;1119;48.288;8.726;2023-10-08T13:12:23;26.00;41.00
2226;DHT22;1119;48.288;8.726;2023-10-08T13:14:51;25.90;41.20
2226;DHT22;1119;48.288;8.726;2023-10-08T13:17:18;25.90;41.70
2226;DHT22;1119;48.288;8.726;2023-10-08T13:19:46;25.80;42.50
2226;DHT22;1119;48.288;8.726;2023-10-08T13:22:14;25.90;41.90
2226;DHT22;1119;48.288;8.726;2023-10-08T13:24:47;25.80;41.50
2226;DHT22;1119;48.288;8.726;2023-10-08T13:27:14;25.90;42.00
2226;DHT22;1119;48.288;8.726;2023-10-08T13:29:42;25.90;41.30
2226;DHT22;1119;48.288;8.726;2023-10-08T13:32:10;25.80;41.30
2226;DHT22;1119;48.288;8.726;2023-10-08T13:34:43;25.80;41.00
2226;DHT22;1119;48.288;8.726;2023-10-08T13:37:12;25.70;41.70
2226;DHT22;1119;48.288;8.726;2023-10-08T13:39:40;25.70;42.10
2226;DHT22;1119;48.288;8.726;2023-10-08T13:42:12;25.60;42.20
2226;DHT22;1119;48.288;8.726;2023-10-08T13:44:45;25.60;42.40
2226;DHT22;1119;48.288;8.726;2023-10-08T13:47:12;25.60;42.70
2226;DHT22;1119;48.288;8.726;2023-10-08T13:49:41;25.50;42.80
2226;DHT22;1119;48.288;8.726;2023-10-08T13:52:09;25.50;43.30
2226;DHT22;1119;48.288;8.726;2023-10-08T13:54:36;25.50;43.40
2226;DHT22;1119;48.288;8.726;2023-10-08T13:57:08;25.40;42.50
2226;DHT22;1119;48.288;8.726;2023-10-08T13:59:42;25.30;42.80
2226;DHT22;1119;48.288;8.726;2023-10-08T14:02:09;25.20;42.70
2226;DHT22;1119;48.288;8.726;2023-10-08T14:04:42;25.10;42.80
2226;DHT22;1119;48.288;8.726;2023-10-08T14:07:11;25.10;42.30
2226;DHT22;1119;48.288;8.726;2023-10-08T14:09:43;25.00;42.80
2226;DHT22;1119;48.288;8.726;2023-10-08T14:12:11;25.00;43.00
2226;DHT22;1119;48.288;8.726;2023-10-08T14:14:42;25.00;42.70
2226;DHT22;1119;48.288;8.726;2023-10-08T14:17:11;24.90;42.80
2226;DHT22;1119;48.288;8.726;2023-10-08T14:19:42;24.90;43.20
2226;DHT22;1119;48.288;8.726;2023-10-08T14:22:18;24.80;43.30
2226;DHT22;1119;48.288;8.726;2023-10-08T14:24:48;24.90;43.80
2226;DHT22;1119;48.288;8.726;2023-10-08T14:27:24;24.90;43.40
2226;DHT22;1119;48.288;8.726;2023-10-08T14:29:58;24.90;43.90
2226;DHT22;1119;48.288;8.726;2023-10-08T14:32:27;24.90;43.30
2226;DHT22;1119;48.288;8.726;2023-10-08T14:34:54;24.80;43.00
2226;DHT22;1119;48.288;8.726;2023-10-08T14:37:39;24.80;43.10
2226;DHT22;1119;48.288;8.726;2023-10-08T14:40:24;24.70;43.20
2226;DHT22;1119;48.288;8.726;2023-10-08T14:43:09;24.60;43.90
2226;DHT22;1119;48.288;8.726;2023-10-08T14:45:39;24.70;43.70
2226;DHT22;1119;48.288;8.726;2023-10-08T14:48:07;24.60;43.70
2226;DHT22;1119;48.288;8.726;2023-10-08T14:50:37;24.60;43.40
2226;DHT22;1119;48.288;8.726;2023-10-08T14:53:04;24.60;43.90
2226;DHT22;1119;48.288;8.726;2023-10-08T14:55:32;24.60;43.30
2226;DHT22;1119;48.288;8.726;2023-10-08T14:58:02;24.50;43.00
2226;DHT22;1119;48.288;8.726;2023-10-08T15:00:34;24.50;43.30
2226;DHT22;1119;48.288;8.726;2023-10-08T15:03:05;24.50;43.80
2226;DHT22;1119;48.288;8.726;2023-10-08T15:05:32;24.50;43.70
2226;DHT22;1119;48.288;8.726;2023-10-08T15:08:03;24.50;43.30
2226;DHT22;1119;48.288;8.726;2023-10-08T15:10:35;24.50;43.70
2226;DHT22;1119;48.288;8.726;2023-10-08T15:13:03;24.50;44.10
2226;DHT22;1119;48.288;8.726;2023-10-08T15:15:32;24.50;43.70
2226;DHT22;1119;48.288;8.726;2023-10-08T15:18:01;24.40;44.00
2226;DHT22;1119;48.288;8.726;2023-10-08T15:20:30;24.40;44.40
2226;DHT22;1119;48.288;8.726;2023-10-08T15:23:01;24.40;44.70
2226;DHT22;1119;48.288;8.726;2023-10-08T15:25:29;24.40;44.50
2226;DHT22;1119;48.288;8.726;2023-10-08T15:27:56;24.40;44.60
2226;DHT22;1119;48.288;8.726;2023-10-08T15:30:24;24.30;44.40
2226;DHT22;1119;48.288;8.726;2023-10-08T15:32:52;24.40;44.70
2226;DHT22;1119;48.288;8.726;2023-10-08T15:35:20;24.30;43.90
2226;DHT22;1119;48.288;8.726;2023-10-08T15:37:52;24.30;43.60
2226;DHT22;1119;48.288;8.726;2023-10-08T15:40:19;24.20;43.30
2226;DHT22;1119;48.288;8.726;2023-10-08T15:42:50;24.10;43.50
2226;DHT22;1119;48.288;8.726;2023-10-08T15:45:19;24.10;43.70
2226;DHT22;1119;48.288;8.726;2023-10-08T15:47:47;23.90;43.60
2226;DHT22;1119;48.288;8.726;2023-10-08T15:50:15;23.80;43.90
2226;DHT22;1119;48.288;8.726;2023-10-08T15:52:46;23.70;43.80
2226;DHT22;1119;48.288;8.726;2023-10-08T15:55:15;23.60;44.20
2226;DHT22;1119;48.288;8.726;2023-10-08T15:57:43;23.50;44.40
2226;DHT22;1119;48.288;8.726;2023-10-08T16:00:12;23.40;44.40
2226;DHT22;1119;48.288;8.726;2023-10-08T16:02:40;23.30;44.40
2226;DHT22;1119;48.288;8.726;2023-10-08T16:05:09;23.20;44.00
2226;DHT22;1119;48.288;8.726;2023-10-08T16:07:36;23.20;44.40
2226;DHT22;1119;48.288;8.726;2023-10-08T16:10:05;23.20;44.30
2226;DHT22;1119;48.288;8.726;2023-10-08T16:12:35;23.10;44.30
2226;DHT22;1119;48.288;8.726;2023-10-08T16:15:03;23.00;44.30
2226;DHT22;1119;48.288;8.726;2023-10-08T16:17:32;23.00;44.70
2226;DHT22;1119;48.288;8.726;2023-10-08T16:20:00;22.90;45.60
2226;DHT22;1119;48.288;8.726;2023-10-08T16:22:35;22.80;45.20
2226;DHT22;1119;48.288;8.726;2023-10-08T16:25:05;22.70;45.70
2226;DHT22;1119;48.288;8.726;2023-10-08T16:27:34;22.60;45.80
2226;DHT22;1119;48.288;8.726;2023-10-08T16:30:02;22.60;46.20
2226;DHT22;1119;48.288;8.726;2023-10-08T16:32:30;22.50;46.50